createdAt,value
2019-02-06T00:01:57.965Z,-2.29
2019-02-06T00:04:45.878Z,-2.33
2019-02-06T00:07:14.939Z,-2.94
2019-02-06T00:09:47.689Z,-2.90
2019-02-06T00:12:19.567Z,-2.64
2019-02-06T00:14:56.175Z,-2.91
2019-02-06T00:17:25.259Z,-2.61
2019-02-06T00:20:07.797Z,-2.34
2019-02-06T00:25:17.471Z,-2.94
2019-02-06T00:27:46.569Z,-2.76
2019-02-06T00:30:15.619Z,-2.60
2019-02-06T00:32:45.256Z,-2.57
2019-02-06T00:35:25.621Z,-2.24
2019-02-06T00:40:24.982Z,-2.75
2019-02-06T00:43:08.399Z,-2.67
2019-02-06T00:45:40.191Z,-2.86
2019-02-06T00:48:09.301Z,-2.97
2019-02-06T00:50:52.919Z,-2.98
2019-02-06T00:53:21.992Z,-3.00
2019-02-06T00:56:04.186Z,-2.83
2019-02-06T00:58:37.408Z,-2.85
2019-02-06T01:03:53.333Z,-2.52
2019-02-06T01:06:22.391Z,-2.55
2019-02-06T01:08:53.397Z,-2.52
2019-02-06T01:11:22.898Z,-2.49
2019-02-06T01:13:52.018Z,-2.45
2019-02-06T01:16:21.081Z,-2.57
2019-02-06T01:21:26.298Z,-3.01
2019-02-06T01:24:07.558Z,-2.71
2019-02-06T01:29:16.289Z,-2.60
2019-02-06T01:31:58.455Z,-2.57
2019-02-06T01:34:27.539Z,-2.34
2019-02-06T01:37:05.080Z,-2.43
2019-02-06T01:39:34.159Z,-2.62
2019-02-06T01:42:03.218Z,-2.55
2019-02-06T01:44:36.236Z,-2.62
2019-02-06T01:47:07.259Z,-2.73
2019-02-06T01:52:13.346Z,-3.00
2019-02-06T01:54:43.383Z,-3.02
2019-02-06T01:57:13.937Z,-3.12
2019-02-06T01:59:57.319Z,-3.22
2019-02-06T02:05:12.192Z,-3.30
2019-02-06T02:07:41.269Z,-3.20
2019-02-06T02:13:07.761Z,-3.24
2019-02-06T02:15:36.835Z,-3.24
2019-02-06T02:20:42.209Z,-2.69
2019-02-06T02:23:14.994Z,-2.53
2019-02-06T02:25:44.084Z,-2.50
2019-02-06T02:28:15.085Z,-2.69
2019-02-06T02:30:44.139Z,-3.14
2019-02-06T02:33:13.209Z,-3.28
2019-02-06T02:35:42.638Z,-3.40
2019-02-06T02:38:29.058Z,-3.74
2019-02-06T02:44:04.362Z,-3.60
2019-02-06T02:46:33.437Z,-3.52
2019-02-06T02:49:10.785Z,-3.49
2019-02-06T02:51:39.887Z,-3.14
2019-02-06T02:56:45.667Z,-3.16
2019-02-06T02:59:28.393Z,-3.42
2019-02-06T03:02:02.530Z,-3.85
2019-02-06T03:04:31.663Z,-3.74
2019-02-06T03:07:04.325Z,-3.44
2019-02-06T03:09:33.383Z,-3.40
2019-02-06T03:16:43.219Z,-2.92
2019-02-06T03:19:12.315Z,-3.33
2019-02-06T03:21:41.899Z,-3.45
2019-02-06T03:24:11.011Z,-3.58
2019-02-06T03:26:40.106Z,-3.40
2019-02-06T03:29:09.183Z,-3.61
2019-02-06T03:31:38.265Z,-3.40
2019-02-06T03:34:15.260Z,-3.49
2019-02-06T03:36:45.297Z,-3.88
2019-02-06T03:39:15.312Z,-3.54
2019-02-06T03:41:45.017Z,-3.19
2019-02-06T03:44:26.135Z,-3.27
2019-02-06T03:46:55.784Z,-3.61
2019-02-06T03:52:05.719Z,-3.51
2019-02-06T03:54:43.804Z,-3.31
2019-02-06T04:00:00.871Z,-2.91
2019-02-06T04:02:31.884Z,-2.83
2019-02-06T04:05:02.885Z,-3.58
2019-02-06T04:07:32.711Z,-3.08
2019-02-06T04:10:01.831Z,-3.59
2019-02-06T04:15:23.071Z,-3.54
2019-02-06T04:17:54.506Z,-3.52
2019-02-06T04:20:32.972Z,-3.65
2019-02-06T04:23:13.066Z,-3.51
2019-02-06T04:25:48.190Z,-3.52
2019-02-06T04:28:17.992Z,-4.15
2019-02-06T04:33:26.913Z,-4.10
2019-02-06T04:35:58.027Z,-4.33
2019-02-06T04:38:27.229Z,-4.52
2019-02-06T04:41:19.086Z,-4.57
2019-02-06T04:43:50.484Z,-4.24
2019-02-06T04:46:20.139Z,-3.75
2019-02-06T04:48:52.702Z,-3.46
2019-02-06T04:51:21.878Z,-3.26
2019-02-06T04:53:57.494Z,-3.58
2019-02-06T04:56:26.655Z,-3.85
2019-02-06T04:58:56.250Z,-3.55
2019-02-06T05:01:25.789Z,-3.64
2019-02-06T05:04:16.944Z,-3.13
2019-02-06T05:06:46.971Z,-3.66
2019-02-06T05:09:16.985Z,-3.78
2019-02-06T05:11:46.446Z,-3.82
2019-02-06T05:14:15.533Z,-3.79
2019-02-06T05:16:44.590Z,-3.98
2019-02-06T05:21:55.322Z,-3.47
2019-02-06T05:24:40.084Z,-4.20
2019-02-06T05:27:10.226Z,-4.27
2019-02-06T05:32:43.005Z,-3.92
2019-02-06T05:37:52.359Z,-3.95
2019-02-06T05:40:29.105Z,-4.22
2019-02-06T05:42:58.169Z,-4.69
2019-02-06T05:45:40.823Z,-4.87
2019-02-06T05:48:24.695Z,-4.70
2019-02-06T05:50:54.389Z,-4.92
2019-02-06T05:58:44.199Z,-5.04
2019-02-06T06:01:41.608Z,-4.95
2019-02-06T06:07:44.145Z,-5.11
2019-02-06T06:13:35.628Z,-5.40
2019-02-06T06:16:08.071Z,-5.45
2019-02-06T06:21:22.008Z,-5.75
2019-02-06T06:23:52.019Z,-5.79
2019-02-06T06:26:28.960Z,-5.73
2019-02-06T06:28:58.012Z,-5.54
2019-02-06T06:31:41.437Z,-5.30
2019-02-06T06:34:13.523Z,-5.36
2019-02-06T06:36:42.998Z,-5.67
2019-02-06T06:41:47.795Z,-5.41
2019-02-06T06:44:16.896Z,-5.54
2019-02-06T06:46:45.943Z,-5.34
2019-02-06T06:49:15.425Z,-5.18
2019-02-06T06:51:44.527Z,-5.54
2019-02-06T06:54:15.580Z,-5.54
2019-02-06T06:56:45.106Z,-5.10
2019-02-06T06:59:14.203Z,-5.40
2019-02-06T07:01:43.287Z,-5.24
2019-02-06T07:06:52.061Z,-5.28
2019-02-06T07:09:23.740Z,-5.18
2019-02-06T07:11:52.839Z,-4.72
2019-02-06T07:14:23.827Z,-4.43
2019-02-06T07:16:52.889Z,-4.10
2019-02-06T07:19:22.871Z,-4.02
2019-02-06T07:21:52.574Z,-3.82
2019-02-06T07:24:35.366Z,-4.03
2019-02-06T07:27:04.447Z,-3.98
2019-02-06T07:29:33.894Z,-4.48
2019-02-06T07:32:06.418Z,-4.38
2019-02-06T07:34:35.479Z,-4.27
2019-02-06T07:37:19.271Z,-4.66
2019-02-06T07:39:51.529Z,-4.22
2019-02-06T07:42:21.300Z,-4.09
2019-02-06T07:44:50.375Z,-4.24
2019-02-06T07:47:19.435Z,-4.91
2019-02-06T07:49:48.499Z,-4.50
2019-02-06T07:54:55.850Z,-3.81
2019-02-06T07:57:26.738Z,-4.03
2019-02-06T07:59:55.803Z,-4.44
2019-02-06T08:02:24.880Z,-4.39
2019-02-06T08:04:53.965Z,-4.71
2019-02-06T08:10:00.279Z,-3.55
2019-02-06T08:12:31.310Z,-3.04
2019-02-06T08:15:00.967Z,-2.95
2019-02-06T08:17:30.139Z,-2.78
2019-02-06T08:19:59.235Z,-2.98
2019-02-06T08:22:29.236Z,-2.69
2019-02-06T08:24:58.315Z,-2.83
2019-02-06T08:27:28.930Z,-2.31
2019-02-06T08:29:58.041Z,-2.21
2019-02-06T08:32:38.981Z,-2.18
2019-02-06T08:35:08.060Z,-1.77
2019-02-06T08:37:37.126Z,-1.69
2019-02-06T08:40:07.775Z,-1.52
2019-02-06T08:42:36.868Z,-1.69
2019-02-06T08:45:15.273Z,-1.57
2019-02-06T08:47:44.579Z,-1.41
2019-02-06T08:50:18.229Z,-0.98
2019-02-06T08:52:47.997Z,-1.10
2019-02-06T08:55:31.722Z,-0.87
2019-02-06T08:58:00.866Z,-0.42
2019-02-06T09:00:31.682Z,-0.06
2019-02-06T09:03:00.790Z,0.31
2019-02-06T09:10:49.883Z,1.35
2019-02-06T09:13:32.259Z,1.11
2019-02-06T09:16:01.372Z,1.58
2019-02-06T09:18:39.759Z,3.35
2019-02-06T09:21:08.803Z,4.71
2019-02-06T09:23:38.813Z,5.33
2019-02-06T09:26:08.542Z,6.80
2019-02-06T09:28:37.603Z,7.44
2019-02-06T09:31:06.646Z,8.08
2019-02-06T09:33:36.614Z,8.21
2019-02-06T09:36:05.690Z,8.96
2019-02-06T09:38:35.461Z,9.39
2019-02-06T09:41:08.032Z,10.29
2019-02-06T09:43:39.075Z,9.84
2019-02-06T09:48:43.834Z,12.02
2019-02-06T09:51:19.269Z,11.99
2019-02-06T09:58:58.601Z,12.44
2019-02-06T10:04:03.498Z,13.54
2019-02-06T10:09:08.477Z,14.25
2019-02-06T10:11:42.384Z,14.25
2019-02-06T10:19:23.326Z,13.38
2019-02-06T10:21:53.725Z,13.31
2019-02-06T10:24:24.512Z,13.58
2019-02-06T10:26:53.659Z,14.02
2019-02-06T10:29:22.730Z,14.20
2019-02-06T10:31:51.881Z,14.54
2019-02-06T10:34:21.959Z,14.68
2019-02-06T10:36:51.012Z,14.79
2019-02-06T10:39:21.070Z,13.36
2019-02-06T10:44:25.801Z,15.05
2019-02-06T10:49:30.575Z,15.42
2019-02-06T10:51:59.630Z,16.48
2019-02-06T10:54:28.692Z,16.24
2019-02-06T10:57:00.823Z,16.36
2019-02-06T10:59:37.676Z,17.40
2019-02-06T11:02:06.922Z,17.51
2019-02-06T11:04:35.911Z,16.28
2019-02-06T11:07:08.085Z,16.94
2019-02-06T11:12:13.123Z,17.40
2019-02-06T11:14:42.167Z,17.64
2019-02-06T11:17:11.901Z,16.70
2019-02-06T11:19:43.049Z,16.99
2019-02-06T11:22:10.166Z,17.19
2019-02-06T11:24:39.241Z,17.22
2019-02-06T11:27:08.298Z,17.51
2019-02-06T11:29:37.900Z,15.94
2019-02-06T11:32:07.127Z,16.60
2019-02-06T11:34:38.100Z,15.89
2019-02-06T11:37:07.164Z,15.84
2019-02-06T11:39:37.119Z,15.81
2019-02-06T11:42:12.162Z,17.45
2019-02-06T11:44:41.537Z,18.02
2019-02-06T11:47:10.595Z,17.82
2019-02-06T11:52:16.446Z,17.33
2019-02-06T11:57:20.721Z,17.92
2019-02-06T11:59:53.158Z,16.50
2019-02-06T12:02:37.061Z,16.41
2019-02-06T12:04:59.947Z,16.82
2019-02-06T12:07:29.027Z,17.37
2019-02-06T12:10:09.297Z,16.62
2019-02-06T12:12:30.604Z,16.05
2019-02-06T12:15:01.286Z,16.43
2019-02-06T12:17:30.432Z,13.88
2019-02-06T12:20:07.633Z,14.57
2019-02-06T12:22:36.671Z,14.22
2019-02-06T12:25:06.663Z,15.11
2019-02-06T12:27:37.288Z,14.25
2019-02-06T12:30:15.875Z,12.85
2019-02-06T12:32:52.255Z,11.59
2019-02-06T12:35:15.651Z,12.43
2019-02-06T12:37:44.839Z,12.04
2019-02-06T12:40:21.026Z,12.07
2019-02-06T12:42:50.119Z,12.31
2019-02-06T12:48:00.223Z,11.64
2019-02-06T12:50:29.335Z,9.31
2019-02-06T12:55:37.248Z,11.55
2019-02-06T12:58:08.251Z,10.99
2019-02-06T13:00:42.305Z,10.73
2019-02-06T13:03:15.332Z,9.82
2019-02-06T13:05:44.480Z,10.97
2019-02-06T13:08:22.659Z,9.13
2019-02-06T13:10:51.761Z,10.69
2019-02-06T13:13:22.523Z,10.77
2019-02-06T13:15:51.633Z,11.09
2019-02-06T13:18:20.710Z,12.64
2019-02-06T13:20:51.408Z,13.24
2019-02-06T13:25:55.387Z,14.97
2019-02-06T13:28:24.428Z,14.49
2019-02-06T13:30:53.517Z,14.38
2019-02-06T13:33:23.009Z,16.05
2019-02-06T13:35:57.865Z,12.99
2019-02-06T13:38:27.084Z,11.15
2019-02-06T13:40:56.223Z,10.43
2019-02-06T13:43:27.258Z,11.50
2019-02-06T13:45:56.950Z,8.31
2019-02-06T13:51:02.377Z,8.22
2019-02-06T13:53:32.963Z,5.62
2019-02-06T13:56:05.638Z,6.18
2019-02-06T13:58:34.690Z,6.71
2019-02-06T14:01:03.747Z,5.41
2019-02-06T14:03:32.804Z,4.97
2019-02-06T14:08:45.063Z,5.15
2019-02-06T14:11:14.119Z,5.27
2019-02-06T14:13:43.168Z,4.96
2019-02-06T14:16:12.256Z,3.88
2019-02-06T14:18:42.469Z,3.36
2019-02-06T14:21:11.541Z,2.98
2019-02-06T14:23:48.549Z,3.64
2019-02-06T14:26:16.738Z,3.80
2019-02-06T14:29:16.274Z,2.40
2019-02-06T14:31:53.777Z,2.65
2019-02-06T14:43:32.343Z,1.92
2019-02-06T14:46:17.032Z,1.57
2019-02-06T14:49:07.030Z,1.95
2019-02-06T14:54:19.801Z,1.65
2019-02-06T15:00:11.784Z,0.11
2019-02-06T15:03:17.676Z,1.15
2019-02-06T15:05:59.296Z,0.02
2019-02-06T15:08:49.627Z,0.05
2019-02-06T15:14:22.684Z,0.75
2019-02-06T15:17:24.322Z,0.49
2019-02-06T15:23:17.358Z,0.14
2019-02-06T15:34:28.688Z,0.77
2019-02-06T15:43:32.211Z,1.17
2019-02-06T15:46:32.404Z,1.00
2019-02-06T15:49:08.753Z,0.65
2019-02-06T15:58:25.216Z,-0.07
2019-02-06T16:03:47.293Z,-0.10
2019-02-06T16:11:55.043Z,-0.77
2019-02-06T16:34:30.650Z,-1.95
2019-02-06T16:42:38.280Z,-2.27
2019-02-06T16:47:57.244Z,-2.36
2019-02-06T16:50:38.943Z,-2.86
2019-02-06T16:56:34.335Z,-2.46
2019-02-06T17:02:09.141Z,-2.52
2019-02-06T17:04:43.011Z,-2.48
2019-02-06T17:07:28.097Z,-2.60
2019-02-06T17:10:08.759Z,-2.37
2019-02-06T17:12:39.502Z,-2.76
2019-02-06T17:15:23.473Z,-2.58
2019-02-06T17:21:51.576Z,-2.42
2019-02-06T17:27:03.625Z,-2.55
2019-02-06T17:29:44.091Z,-2.44
2019-02-06T17:35:05.853Z,-2.56
2019-02-06T17:40:58.245Z,-2.30
2019-02-06T17:43:34.755Z,-2.42
2019-02-06T17:48:42.441Z,-2.36
2019-02-06T17:57:28.296Z,-2.43
2019-02-06T18:00:09.386Z,-2.37
2019-02-06T18:02:38.508Z,-2.26
2019-02-06T18:05:07.579Z,-2.10
2019-02-06T18:07:51.638Z,-2.29
2019-02-06T18:10:27.983Z,-2.13
2019-02-06T18:17:30.716Z,-2.23
2019-02-06T18:20:01.558Z,-2.16
2019-02-06T18:22:33.208Z,-1.98
2019-02-06T18:27:45.327Z,-1.87
2019-02-06T18:32:56.829Z,-2.08
2019-02-06T18:35:26.942Z,-1.91
2019-02-06T18:37:56.983Z,-1.98
2019-02-06T18:40:30.122Z,-2.00
2019-02-06T18:42:59.334Z,-2.02
2019-02-06T18:45:41.763Z,-1.92
2019-02-06T18:48:11.702Z,-2.07
2019-02-06T18:50:42.505Z,-1.90
2019-02-06T18:53:11.658Z,-1.89
2019-02-06T18:55:58.925Z,-1.99
2019-02-06T19:01:16.159Z,-1.94
2019-02-06T19:03:46.343Z,-2.15
2019-02-06T19:08:51.175Z,-2.13
2019-02-06T19:11:20.256Z,-2.10
2019-02-06T19:13:49.327Z,-2.18
2019-02-06T19:16:20.961Z,-1.89
2019-02-06T19:18:50.076Z,-1.91
2019-02-06T19:21:19.133Z,-1.89
2019-02-06T19:23:48.589Z,-2.05
2019-02-06T19:26:17.720Z,-1.84
2019-02-06T19:28:46.799Z,-1.87
2019-02-06T19:33:53.035Z,-1.96
2019-02-06T19:36:26.228Z,-2.17
2019-02-06T19:38:55.357Z,-1.96
2019-02-06T19:44:05.173Z,-1.99
2019-02-06T19:49:13.556Z,-1.94
2019-02-06T19:51:42.695Z,-2.11
2019-02-06T19:54:12.120Z,-2.06
2019-02-06T19:59:21.692Z,-2.65
2019-02-06T20:01:50.872Z,-2.87
2019-02-06T20:04:20.063Z,-3.07
2019-02-06T20:06:56.306Z,-3.30
2019-02-06T20:09:26.183Z,-3.05
2019-02-06T20:11:58.119Z,-2.65
2019-02-06T20:14:28.222Z,-2.44
2019-02-06T20:16:58.229Z,-2.92
2019-02-06T20:19:27.357Z,-2.93
2019-02-06T20:21:57.954Z,-2.26
2019-02-06T20:24:27.096Z,-2.31
2019-02-06T20:26:56.144Z,-2.15
2019-02-06T20:29:25.197Z,-2.14
2019-02-06T20:34:33.328Z,-2.24
2019-02-06T20:37:02.446Z,-2.47
2019-02-06T20:39:33.477Z,-2.64
2019-02-06T20:42:04.198Z,-2.66
2019-02-06T20:44:33.291Z,-2.36
2019-02-06T20:47:02.359Z,-2.78
2019-02-06T20:49:31.423Z,-2.90
2019-02-06T20:52:02.460Z,-2.76
2019-02-06T20:54:32.632Z,-2.89
2019-02-06T20:57:12.086Z,-3.14
2019-02-06T20:59:32.643Z,-3.01
2019-02-06T21:02:01.709Z,-3.41
2019-02-06T21:04:30.804Z,-2.97
2019-02-06T21:07:02.074Z,-3.07
2019-02-06T21:09:32.055Z,-3.21
2019-02-06T21:14:44.924Z,-3.42
2019-02-06T21:17:23.684Z,-3.67
2019-02-06T21:22:32.399Z,-3.10
2019-02-06T21:30:26.286Z,-2.78
2019-02-06T21:32:57.155Z,-2.91
2019-02-06T21:38:42.976Z,-3.26
2019-02-06T21:41:12.102Z,-3.43
2019-02-06T21:43:48.953Z,-3.63
2019-02-06T21:46:23.740Z,-3.30
2019-02-06T21:51:38.076Z,-3.26
2019-02-06T21:54:07.159Z,-2.92
2019-02-06T21:56:43.468Z,-2.82
2019-02-06T21:59:13.192Z,-2.67
2019-02-06T22:01:42.383Z,-3.00
2019-02-06T22:04:11.455Z,-3.24
2019-02-06T22:09:29.746Z,-2.82
2019-02-06T22:11:58.799Z,-2.85
2019-02-06T22:14:49.053Z,-3.09
2019-02-06T22:17:32.936Z,-3.63
2019-02-06T22:20:02.055Z,-3.56
2019-02-06T22:22:38.742Z,-3.91
2019-02-06T22:25:08.803Z,-3.86
2019-02-06T22:27:54.987Z,-3.83
2019-02-06T22:30:43.035Z,-4.00
2019-02-06T22:33:20.003Z,-4.25
2019-02-06T22:38:29.416Z,-4.10
2019-02-06T22:40:58.509Z,-4.09
2019-02-06T22:46:08.702Z,-3.98
2019-02-06T22:51:23.724Z,-3.36
2019-02-06T22:53:54.777Z,-3.73
2019-02-06T22:56:34.794Z,-4.09
2019-02-06T22:59:03.978Z,-4.03
2019-02-06T23:01:34.026Z,-3.90
2019-02-06T23:04:03.115Z,-4.32
2019-02-06T23:06:34.668Z,-4.50
2019-02-06T23:09:05.107Z,-4.63
2019-02-06T23:14:17.554Z,-4.77
2019-02-06T23:16:54.214Z,-4.81
2019-02-06T23:21:59.503Z,-4.61
2019-02-06T23:27:08.283Z,-4.84
2019-02-06T23:29:53.171Z,-4.87
2019-02-06T23:32:35.241Z,-4.90
2019-02-06T23:35:04.338Z,-4.69
2019-02-06T23:40:27.241Z,-4.75
2019-02-06T23:42:56.306Z,-4.79
2019-02-06T23:48:09.199Z,-4.39
2019-02-06T23:54:54.012Z,-4.71
2019-02-06T23:57:24.922Z,-4.84
2019-02-06T23:59:54.056Z,-4.74
